Trout Run, Pennsylvania
Current Conditions -  °F | °C
As of 1:54 AM on Friday 28 Nov 2014 (Local Time) from KIPT Reporting Station
Overcast Overcast  
Wind Chill: 26°   Ceiling: 4300
Heat Index: 31°   Visibility: 10mi
Dew Point: 25°   Wind: 5mph
Humidity: 79%   Direction: 310°NW
Pressure: 30.1"   Gusts: NA
Location:  41.39°N, 77.06°W
Report Text: KIPT 280654Z AUTO 31004KT 10SM OVC043 M01/M04 A3010 RMK AO2 SLP197 T10061039
Loading
Personal Weather Stations






























Interactive Weather Map New forecast layout! Learn more

10-Day Weather Forecast

Advertisements
Track Severe Weather on mobile